createdAt,value
2019-04-25T00:00:44.231Z,93.21
2019-04-25T00:01:44.663Z,93.12
2019-04-25T00:02:44.736Z,93.21
2019-04-25T00:03:44.672Z,94.07
2019-04-25T00:04:44.632Z,93.70
2019-04-25T00:05:43.765Z,94.27
2019-04-25T00:06:44.012Z,93.98
2019-04-25T00:07:43.940Z,93.70
2019-04-25T00:08:44.133Z,93.31
2019-04-25T00:09:44.063Z,92.36
2019-04-25T00:10:43.903Z,92.93
2019-04-25T00:11:46.624Z,93.41
2019-04-25T00:12:44.543Z,94.17
2019-04-25T00:13:44.075Z,93.98
2019-04-25T00:14:43.792Z,94.17
2019-04-25T00:15:44.933Z,94.93
2019-04-25T00:16:44.158Z,94.93
2019-04-25T00:17:44.329Z,94.74
2019-04-25T00:18:44.229Z,94.74
2019-04-25T00:19:44.158Z,94.93
2019-04-25T00:20:43.683Z,94.17
2019-04-25T00:21:43.466Z,93.21
2019-04-25T00:22:43.720Z,93.84
2019-04-25T00:23:43.772Z,93.70
2019-04-25T00:24:44.123Z,93.55
2019-04-25T00:25:46.760Z,92.97
2019-04-25T00:26:44.996Z,92.50
2019-04-25T00:27:44.825Z,93.36
2019-04-25T00:28:44.406Z,94.98
2019-04-25T00:29:44.508Z,95.46
2019-04-25T00:30:44.468Z,95.56
2019-04-25T00:31:43.817Z,95.36
2019-04-25T00:32:44.191Z,94.89
2019-04-25T00:33:44.186Z,94.03
2019-04-25T00:34:44.487Z,93.65
2019-04-25T00:35:44.568Z,94.60
2019-04-25T00:36:45.357Z,94.98
2019-04-25T00:37:45.105Z,95.94
2019-04-25T00:38:46.272Z,95.84
2019-04-25T00:39:44.883Z,95.46
2019-04-25T00:40:43.950Z,95.36
2019-04-25T00:41:45.145Z,95.41
2019-04-25T00:42:44.687Z,95.12
2019-04-25T00:43:44.040Z,95.17
2019-04-25T00:44:44.796Z,94.46
2019-04-25T00:45:44.323Z,94.22
2019-04-25T00:46:46.393Z,94.12
2019-04-25T00:47:43.867Z,93.93
2019-04-25T00:48:43.436Z,94.03
2019-04-25T00:49:44.196Z,94.12
2019-04-25T00:50:43.646Z,93.93
2019-04-25T00:51:43.836Z,94.12
2019-04-25T00:52:43.925Z,94.07
2019-04-25T00:53:43.732Z,93.41
2019-04-25T00:54:43.172Z,93.98
2019-04-25T00:55:43.145Z,93.93
2019-04-25T00:56:45.789Z,93.79
2019-04-25T00:57:43.612Z,94.17
2019-04-25T00:58:43.983Z,94.65
2019-04-25T00:59:43.894Z,94.46
2019-04-25T01:00:43.439Z,93.79
2019-04-25T01:01:44.212Z,94.27
2019-04-25T01:02:44.077Z,94.65
2019-04-25T01:03:44.112Z,93.88
2019-04-25T01:04:43.740Z,94.07
2019-04-25T01:05:44.406Z,93.41
2019-04-25T01:06:43.931Z,94.17
2019-04-25T01:07:44.245Z,93.70
2019-04-25T01:08:43.359Z,93.98
2019-04-25T01:09:42.537Z,94.17
2019-04-25T01:10:42.524Z,93.79
2019-04-25T01:11:42.542Z,94.27
2019-04-25T01:12:42.482Z,93.98
2019-04-25T01:13:42.463Z,93.98
2019-04-25T01:14:42.442Z,93.88
2019-04-25T01:15:42.589Z,94.84
2019-04-25T01:16:42.408Z,94.74
2019-04-25T01:17:42.384Z,94.65
2019-04-25T01:18:43.651Z,94.36
2019-04-25T01:19:44.037Z,94.56
2019-04-25T01:20:43.440Z,94.56
2019-04-25T01:21:43.904Z,94.56
2019-04-25T01:22:43.987Z,94.93
2019-04-25T01:23:43.469Z,95.41
2019-04-25T01:24:43.858Z,95.32
2019-04-25T01:25:44.295Z,95.03
2019-04-25T01:26:43.749Z,95.32
2019-04-25T01:27:43.308Z,94.74
2019-04-25T01:28:43.845Z,94.22
2019-04-25T01:29:42.151Z,94.74
2019-04-25T01:30:43.803Z,95.08
2019-04-25T01:31:43.450Z,94.89
2019-04-25T01:32:44.640Z,94.51
2019-04-25T01:33:43.345Z,94.60
2019-04-25T01:34:42.055Z,94.79
2019-04-25T01:35:43.091Z,94.51
2019-04-25T01:36:42.023Z,95.27
2019-04-25T01:37:43.719Z,94.65
2019-04-25T01:38:43.306Z,94.36
2019-04-25T01:39:41.959Z,94.46
2019-04-25T01:40:43.481Z,94.51
2019-04-25T01:41:41.920Z,94.60
2019-04-25T01:42:43.725Z,94.41
2019-04-25T01:43:43.639Z,94.70
2019-04-25T01:44:41.861Z,94.51
2019-04-25T01:45:41.843Z,94.79
2019-04-25T01:46:41.826Z,94.60
2019-04-25T01:47:43.426Z,95.46
2019-04-25T01:48:43.267Z,95.46
2019-04-25T01:49:41.764Z,95.27
2019-04-25T01:50:43.639Z,96.03
2019-04-25T01:51:41.725Z,95.65
2019-04-25T01:52:43.353Z,96.03
2019-04-25T01:53:41.687Z,95.94
2019-04-25T01:54:41.665Z,96.13
2019-04-25T01:55:53.005Z,96.22
2019-04-25T01:56:41.628Z,96.03
2019-04-25T01:57:41.607Z,96.13
2019-04-25T01:58:41.588Z,95.75
2019-04-25T01:59:41.580Z,96.13
2019-04-25T02:00:43.154Z,95.56
2019-04-25T02:01:41.528Z,95.46
2019-04-25T02:02:41.513Z,95.27
2019-04-25T02:03:41.498Z,95.17
2019-04-25T02:04:41.476Z,95.17
2019-04-25T02:05:41.456Z,94.60
2019-04-25T02:06:41.432Z,94.51
2019-04-25T02:07:41.411Z,94.41
2019-04-25T02:08:41.395Z,93.74
2019-04-25T02:09:41.373Z,93.74
2019-04-25T02:10:41.357Z,93.84
2019-04-25T02:11:41.334Z,93.27
2019-04-25T02:12:41.314Z,93.36
2019-04-25T02:13:41.294Z,93.65
2019-04-25T02:14:41.276Z,93.84
2019-04-25T02:15:41.258Z,93.74
2019-04-25T02:16:41.236Z,93.74
2019-04-25T02:17:41.225Z,93.46
2019-04-25T02:18:41.197Z,93.17
2019-04-25T02:19:41.177Z,93.17
2019-04-25T02:20:41.158Z,92.50
2019-04-25T02:21:41.137Z,92.41
2019-04-25T02:22:41.128Z,92.60
2019-04-25T02:23:41.098Z,92.41
2019-04-25T02:24:41.080Z,92.41
2019-04-25T02:25:41.059Z,92.12
2019-04-25T02:26:41.040Z,92.12
2019-04-25T02:27:41.019Z,91.64
2019-04-25T02:28:40.998Z,91.55
2019-04-25T02:29:40.979Z,91.07
2019-04-25T02:30:40.964Z,91.55
2019-04-25T02:31:40.940Z,92.12
2019-04-25T02:32:40.920Z,91.64
2019-04-25T02:33:40.902Z,91.64
2019-04-25T02:34:40.884Z,91.55
2019-04-25T02:35:43.214Z,91.64
2019-04-25T02:36:40.841Z,92.32
2019-04-25T02:37:40.822Z,91.55
2019-04-25T02:38:40.804Z,91.36
2019-04-25T02:39:40.792Z,91.93
2019-04-25T02:40:40.767Z,91.74
2019-04-25T02:41:40.745Z,91.93
2019-04-25T02:42:40.724Z,91.64
2019-04-25T02:43:40.710Z,91.55
2019-04-25T02:44:40.699Z,91.74
2019-04-25T02:45:40.664Z,91.93
2019-04-25T02:46:40.645Z,92.41
2019-04-25T02:47:40.628Z,92.69
2019-04-25T02:48:40.606Z,92.50
2019-04-25T02:49:40.599Z,92.41
2019-04-25T02:50:40.571Z,92.41
2019-04-25T02:51:40.549Z,92.50
2019-04-25T02:52:40.528Z,92.32
2019-04-25T02:53:40.505Z,92.41
2019-04-25T02:54:40.500Z,92.12
2019-04-25T02:55:40.468Z,91.55
2019-04-25T02:56:40.449Z,91.27
2019-04-25T02:57:40.426Z,91.17
2019-04-25T02:58:40.406Z,90.88
2019-04-25T02:59:40.390Z,91.17
2019-04-25T03:00:54.965Z,91.17
2019-04-25T03:01:40.349Z,91.27
2019-04-25T03:02:40.343Z,90.79
2019-04-25T03:03:40.309Z,91.27
2019-04-25T03:04:40.290Z,91.17
2019-04-25T03:05:40.309Z,91.17
2019-04-25T03:06:40.259Z,91.17
2019-04-25T03:07:40.229Z,91.27
2019-04-25T03:08:40.213Z,91.36
2019-04-25T03:09:40.191Z,91.17
2019-04-25T03:10:40.171Z,91.27
2019-04-25T03:11:40.148Z,90.88
2019-04-25T03:12:40.148Z,90.88
2019-04-25T03:13:40.110Z,90.88
2019-04-25T03:14:40.091Z,90.88
2019-04-25T03:15:40.078Z,91.07
2019-04-25T03:16:40.056Z,90.98
2019-04-25T03:17:40.031Z,91.46
2019-04-25T03:18:40.011Z,91.03
2019-04-25T03:19:39.990Z,91.50
2019-04-25T03:20:39.972Z,91.03
2019-04-25T03:21:39.955Z,90.98
2019-04-25T03:22:39.931Z,91.69
2019-04-25T03:23:42.602Z,91.55
2019-04-25T03:24:39.894Z,91.50
2019-04-25T03:25:39.869Z,91.50
2019-04-25T03:26:40.745Z,91.69
2019-04-25T03:27:39.832Z,91.98
2019-04-25T03:28:39.810Z,91.98
2019-04-25T03:29:39.791Z,92.27
2019-04-25T03:30:39.773Z,92.46
2019-04-25T03:31:39.754Z,92.17
2019-04-25T03:32:39.739Z,91.88
2019-04-25T03:33:39.713Z,92.46
2019-04-25T03:34:39.691Z,92.17
2019-04-25T03:35:39.679Z,91.88
2019-04-25T03:36:39.653Z,91.88
2019-04-25T03:37:39.632Z,91.88
2019-04-25T03:38:39.613Z,92.17
2019-04-25T03:39:39.593Z,91.98
2019-04-25T03:40:39.573Z,91.98
2019-04-25T03:41:39.555Z,91.98
2019-04-25T03:42:39.534Z,91.98
2019-04-25T03:43:39.514Z,92.08
2019-04-25T03:44:39.498Z,92.08
2019-04-25T03:45:39.474Z,91.98
2019-04-25T03:46:39.455Z,92.17
2019-04-25T03:47:39.435Z,92.08
2019-04-25T03:48:39.421Z,92.17
2019-04-25T03:49:39.394Z,92.08
2019-04-25T03:50:39.376Z,92.46
2019-04-25T03:51:39.357Z,92.55
2019-04-25T03:52:39.338Z,92.36
2019-04-25T03:53:39.314Z,92.65
2019-04-25T03:54:39.295Z,92.36
2019-04-25T03:55:39.292Z,92.84
2019-04-25T03:56:49.934Z,92.55
2019-04-25T03:57:39.235Z,92.46
2019-04-25T03:58:39.231Z,92.27
2019-04-25T03:59:39.205Z,91.31
2019-04-25T04:00:39.177Z,91.13
2019-04-25T04:01:39.155Z,90.84
2019-04-25T04:02:39.145Z,91.03
2019-04-25T04:03:39.115Z,90.84
2019-04-25T04:04:39.094Z,90.84
2019-04-25T04:05:39.083Z,90.93
2019-04-25T04:06:39.066Z,91.03
2019-04-25T04:07:39.046Z,90.93
2019-04-25T04:08:39.016Z,91.22
2019-04-25T04:09:38.994Z,91.13
2019-04-25T04:10:38.975Z,91.31
2019-04-25T04:11:38.959Z,90.93
2019-04-25T04:12:38.940Z,90.55
2019-04-25T04:13:38.918Z,91.22
2019-04-25T04:14:38.897Z,90.84
2019-04-25T04:15:38.876Z,91.22
2019-04-25T04:16:38.863Z,91.13
2019-04-25T04:17:38.838Z,91.22
2019-04-25T04:18:38.816Z,91.22
2019-04-25T04:19:38.799Z,90.74
2019-04-25T04:20:38.783Z,90.64
2019-04-25T04:21:38.756Z,90.45
2019-04-25T04:22:38.735Z,91.13
2019-04-25T04:23:38.716Z,91.22
2019-04-25T04:24:38.696Z,91.31
2019-04-25T04:25:38.677Z,91.31
2019-04-25T04:26:38.655Z,91.03
2019-04-25T04:27:38.637Z,91.13
2019-04-25T04:28:38.618Z,91.03
2019-04-25T04:29:38.595Z,91.22
2019-04-25T04:30:38.576Z,90.84
2019-04-25T04:31:38.556Z,90.93
2019-04-25T04:32:38.541Z,91.03
2019-04-25T04:33:38.516Z,90.93
2019-04-25T04:34:38.496Z,90.26
2019-04-25T04:35:38.478Z,90.08
2019-04-25T04:36:38.457Z,90.26
2019-04-25T04:37:38.443Z,90.74
2019-04-25T04:38:38.434Z,90.55
2019-04-25T04:39:38.396Z,90.74
2019-04-25T04:40:38.376Z,91.03
2019-04-25T04:41:38.363Z,91.13
2019-04-25T04:42:38.337Z,91.03
2019-04-25T04:43:38.317Z,91.03
2019-04-25T04:44:38.297Z,90.64
2019-04-25T04:45:38.275Z,90.45
2019-04-25T04:46:38.259Z,90.64
2019-04-25T04:47:38.237Z,90.64
2019-04-25T04:48:38.218Z,90.74
2019-04-25T04:49:38.200Z,90.84
2019-04-25T04:50:38.177Z,90.17
2019-04-25T04:51:38.158Z,91.03
2019-04-25T04:52:38.139Z,90.64
2019-04-25T04:53:38.116Z,90.55
2019-04-25T04:54:38.096Z,90.64
2019-04-25T04:55:38.076Z,90.93
2019-04-25T04:56:38.067Z,90.17
2019-04-25T04:57:38.035Z,90.17
2019-04-25T04:58:38.023Z,90.36
2019-04-25T04:59:37.998Z,90.74
2019-04-25T05:00:37.977Z,90.74
2019-04-25T05:01:37.958Z,91.13
2019-04-25T05:02:37.941Z,90.84
2019-04-25T05:03:37.917Z,90.64
2019-04-25T05:04:37.899Z,90.84
2019-04-25T05:05:37.877Z,90.45
2019-04-25T05:06:37.857Z,90.26
2019-04-25T05:07:37.843Z,90.55
2019-04-25T05:08:37.818Z,90.36
2019-04-25T05:09:37.795Z,90.26
2019-04-25T05:10:37.776Z,90.36
2019-04-25T05:11:37.767Z,90.26
2019-04-25T05:12:37.740Z,90.55
2019-04-25T05:13:37.716Z,90.36
2019-04-25T05:14:37.695Z,90.26
2019-04-25T05:15:37.680Z,89.79
2019-04-25T05:16:37.658Z,89.40
2019-04-25T05:17:37.638Z,89.22
2019-04-25T05:18:39.982Z,88.84
2019-04-25T05:19:37.596Z,88.84
2019-04-25T05:20:37.586Z,88.88
2019-04-25T05:21:37.565Z,89.26
2019-04-25T05:22:37.537Z,88.98
2019-04-25T05:23:37.521Z,88.50
2019-04-25T05:24:37.498Z,89.36
2019-04-25T05:25:37.480Z,88.59
2019-04-25T05:26:37.456Z,88.12
2019-04-25T05:27:50.800Z,88.12
2019-04-25T05:28:37.418Z,87.45
2019-04-25T05:29:37.396Z,88.31
2019-04-25T05:30:37.379Z,88.12
2019-04-25T05:31:37.362Z,88.21
2019-04-25T05:32:37.358Z,86.49
2019-04-25T05:33:37.317Z,86.69
2019-04-25T05:34:37.304Z,86.88
2019-04-25T05:35:37.279Z,86.88
2019-04-25T05:36:37.256Z,86.69
2019-04-25T05:37:37.251Z,86.21
2019-04-25T05:38:37.217Z,86.21
2019-04-25T05:39:37.199Z,86.88
2019-04-25T05:40:37.177Z,86.49
2019-04-25T05:41:37.157Z,86.49
2019-04-25T05:42:37.139Z,86.49
2019-04-25T05:43:37.117Z,86.02
2019-04-25T05:44:37.098Z,86.59
2019-04-25T05:45:37.081Z,86.11
2019-04-25T05:46:37.058Z,86.21
2019-04-25T05:47:37.037Z,86.54
2019-04-25T05:48:37.018Z,86.82
2019-04-25T05:49:37.003Z,86.35
2019-04-25T05:50:36.981Z,87.02
2019-04-25T05:51:36.963Z,87.30
2019-04-25T05:52:36.946Z,86.92
2019-04-25T05:53:36.919Z,86.25
2019-04-25T05:54:36.921Z,85.58
2019-04-25T05:55:36.880Z,85.58
2019-04-25T05:56:36.867Z,85.68
2019-04-25T05:57:45.517Z,85.11
2019-04-25T05:58:36.823Z,84.92
2019-04-25T05:59:36.799Z,84.53
2019-04-25T06:00:36.791Z,84.39
2019-04-25T06:01:36.760Z,84.58
2019-04-25T06:02:36.747Z,83.91
2019-04-25T06:03:36.745Z,83.81
2019-04-25T06:04:36.707Z,83.91
2019-04-25T06:05:36.676Z,83.91
2019-04-25T06:06:36.956Z,83.24
2019-04-25T06:07:36.640Z,83.24
2019-04-25T06:08:36.621Z,83.14
2019-04-25T06:09:36.610Z,82.76
2019-04-25T06:10:36.582Z,83.05
2019-04-25T06:11:36.562Z,83.91
2019-04-25T06:12:36.576Z,83.72
2019-04-25T06:13:36.520Z,83.43
2019-04-25T06:14:36.500Z,83.53
2019-04-25T06:15:36.481Z,83.24
2019-04-25T06:16:36.470Z,83.05
2019-04-25T06:17:36.452Z,83.62
2019-04-25T06:18:36.421Z,83.05
2019-04-25T06:19:36.401Z,82.76
2019-04-25T06:20:36.389Z,83.34
2019-04-25T06:21:36.362Z,83.62
2019-04-25T06:22:36.345Z,83.43
2019-04-25T06:23:36.321Z,83.72
2019-04-25T06:24:36.301Z,83.62
2019-04-25T06:25:39.773Z,83.38
2019-04-25T06:26:39.734Z,83.14
2019-04-25T06:27:36.244Z,82.61
2019-04-25T06:28:36.223Z,82.52
2019-04-25T06:29:36.203Z,82.71
2019-04-25T06:30:36.183Z,82.42
2019-04-25T06:31:36.165Z,82.32
2019-04-25T06:32:36.145Z,81.95
2019-04-25T06:33:36.171Z,81.76
2019-04-25T06:34:36.527Z,81.66
2019-04-25T06:35:36.089Z,81.66
2019-04-25T06:36:36.065Z,81.85
2019-04-25T06:37:36.045Z,81.09
2019-04-25T06:38:36.026Z,81.27
2019-04-25T06:39:36.006Z,80.74
2019-04-25T06:40:35.988Z,80.36
2019-04-25T06:41:35.967Z,79.79
2019-04-25T06:42:35.948Z,80.46
2019-04-25T06:43:35.930Z,80.36
2019-04-25T06:44:35.908Z,79.79
2019-04-25T06:45:35.887Z,80.07
2019-04-25T06:46:35.873Z,79.41
2019-04-25T06:47:35.848Z,79.44
2019-04-25T06:48:35.829Z,79.54
2019-04-25T06:49:37.317Z,78.78
2019-04-25T06:50:35.797Z,78.68
2019-04-25T06:51:35.778Z,78.49
2019-04-25T06:52:35.754Z,78.01
2019-04-25T06:53:35.734Z,78.39
2019-04-25T06:54:35.718Z,78.11
2019-04-25T06:55:35.695Z,78.68
2019-04-25T06:56:35.674Z,78.39
2019-04-25T06:57:35.656Z,78.30
2019-04-25T06:58:35.635Z,78.05
2019-04-25T06:59:38.657Z,76.42
2019-04-25T07:00:41.181Z,76.42
2019-04-25T07:01:35.586Z,75.09
2019-04-25T07:02:35.565Z,74.99
2019-04-25T07:03:35.819Z,76.62
2019-04-25T07:04:35.519Z,76.52
2019-04-25T07:05:40.245Z,75.18
2019-04-25T07:06:35.488Z,75.27
2019-04-25T07:07:35.461Z,75.18
2019-04-25T07:08:35.611Z,75.18
2019-04-25T07:09:36.089Z,74.99
2019-04-25T07:10:35.405Z,74.74
2019-04-25T07:11:35.841Z,76.84
2019-04-25T07:12:36.027Z,76.37
2019-04-25T07:13:38.566Z,75.22
2019-04-25T07:14:36.860Z,75.02
2019-04-25T07:15:35.383Z,74.65
2019-04-25T07:16:35.294Z,73.79
2019-04-25T07:17:35.981Z,74.40
2019-04-25T07:18:37.221Z,74.58
2019-04-25T07:19:35.574Z,72.73
2019-04-25T07:20:35.522Z,72.86
2019-04-25T07:21:35.614Z,73.54
2019-04-25T07:22:36.181Z,74.01
2019-04-25T07:23:35.832Z,72.96
2019-04-25T07:24:35.378Z,71.23
2019-04-25T07:25:35.836Z,70.85
2019-04-25T07:26:39.458Z,71.33
2019-04-25T07:27:35.626Z,72.48
2019-04-25T07:28:36.091Z,72.19
2019-04-25T07:29:35.702Z,72.67
2019-04-25T07:30:48.357Z,71.42
2019-04-25T07:31:35.690Z,70.85
2019-04-25T07:32:35.772Z,72.29
2019-04-25T07:33:35.871Z,71.81
2019-04-25T07:34:35.138Z,72.00
2019-04-25T07:35:35.717Z,70.28
2019-04-25T07:36:36.168Z,70.56
2019-04-25T07:37:37.166Z,69.89
2019-04-25T07:38:35.047Z,69.99
2019-04-25T07:39:35.570Z,71.04
2019-04-25T07:40:35.018Z,70.47
2019-04-25T07:41:37.140Z,70.28
2019-04-25T07:42:35.447Z,68.94
2019-04-25T07:43:35.383Z,68.59
2019-04-25T07:44:47.855Z,69.54
2019-04-25T07:45:36.162Z,68.97
2019-04-25T07:46:39.277Z,69.83
2019-04-25T07:47:35.494Z,70.31
2019-04-25T07:48:37.151Z,68.01
2019-04-25T07:49:34.852Z,68.30
2019-04-25T07:50:35.411Z,68.30
2019-04-25T07:51:35.511Z,69.20
2019-04-25T07:52:35.688Z,68.05
2019-04-25T07:53:35.904Z,66.99
2019-04-25T07:54:35.488Z,66.22
2019-04-25T07:55:36.348Z,66.13
2019-04-25T07:56:35.552Z,66.71
2019-04-25T07:57:35.610Z,65.94
2019-04-25T07:58:45.422Z,65.84
2019-04-25T07:59:35.358Z,65.65
2019-04-25T08:00:35.498Z,65.75
2019-04-25T08:01:37.278Z,66.89
2019-04-25T08:02:35.056Z,65.75
2019-04-25T08:03:35.282Z,66.22
2019-04-25T08:04:35.837Z,65.36
2019-04-25T08:05:35.679Z,64.12
2019-04-25T08:06:34.560Z,63.83
2019-04-25T08:07:35.276Z,64.79
2019-04-25T08:08:34.990Z,65.36
2019-04-25T08:09:35.738Z,64.40
2019-04-25T08:10:34.678Z,63.89
2019-04-25T08:11:35.095Z,64.37
2019-04-25T08:12:35.452Z,65.26
2019-04-25T08:13:35.080Z,64.47
2019-04-25T08:14:35.101Z,64.98
2019-04-25T08:15:34.979Z,65.55
2019-04-25T08:16:34.790Z,64.98
2019-04-25T08:17:34.657Z,64.66
2019-04-25T08:18:35.122Z,65.26
2019-04-25T08:19:34.691Z,63.35
2019-04-25T08:20:34.801Z,63.26
2019-04-25T08:21:35.137Z,62.87
2019-04-25T08:22:42.921Z,63.35
2019-04-25T08:23:36.719Z,63.54
2019-04-25T08:24:34.901Z,62.96
2019-04-25T08:25:37.697Z,62.30
2019-04-25T08:26:36.080Z,62.30
2019-04-25T08:27:34.752Z,63.64
2019-04-25T08:28:34.552Z,63.45
2019-04-25T08:29:36.331Z,62.68
2019-04-25T08:30:35.341Z,62.77
2019-04-25T08:31:34.955Z,63.16
2019-04-25T08:32:35.508Z,62.87
2019-04-25T08:33:34.547Z,63.06
2019-04-25T08:34:34.829Z,64.40
2019-04-25T08:35:34.256Z,63.26
2019-04-25T08:36:38.020Z,63.26
2019-04-25T08:37:34.443Z,62.87
2019-04-25T08:38:34.795Z,63.86
2019-04-25T08:39:36.938Z,63.29
2019-04-25T08:40:35.796Z,62.26
2019-04-25T08:41:34.845Z,61.69
2019-04-25T08:42:35.406Z,59.67
2019-04-25T08:43:34.828Z,59.61
2019-04-25T08:44:34.818Z,61.43
2019-04-25T08:45:35.705Z,60.08
2019-04-25T08:46:35.815Z,59.61
2019-04-25T08:47:35.095Z,58.64
2019-04-25T08:48:34.504Z,58.62
2019-04-25T08:49:34.929Z,59.58
2019-04-25T08:50:37.194Z,59.19
2019-04-25T08:51:34.873Z,58.14
2019-04-25T08:52:35.140Z,58.33
2019-04-25T08:53:35.144Z,59.19
2019-04-25T08:54:35.416Z,60.18
2019-04-25T08:55:34.919Z,59.51
2019-04-25T08:56:35.101Z,59.32
2019-04-25T08:57:34.122Z,59.41
2019-04-25T08:58:35.135Z,59.99
2019-04-25T08:59:40.090Z,59.89
2019-04-25T09:00:35.532Z,59.61
2019-04-25T09:01:36.503Z,58.45
2019-04-25T09:02:36.109Z,58.64
2019-04-25T09:03:35.277Z,59.89
2019-04-25T09:04:35.685Z,59.70
2019-04-25T09:05:35.173Z,59.41
2019-04-25T09:06:35.058Z,58.74
2019-04-25T09:07:35.357Z,57.78
2019-04-25T09:08:36.023Z,57.68
2019-04-25T09:09:35.384Z,58.45
2019-04-25T09:10:36.831Z,58.14
2019-04-25T09:11:34.814Z,58.23
2019-04-25T09:12:35.537Z,58.81
2019-04-25T09:13:35.848Z,58.52
2019-04-25T09:14:34.906Z,59.38
2019-04-25T09:15:35.664Z,61.78
2019-04-25T09:16:34.517Z,60.63
2019-04-25T09:17:35.484Z,60.44
2019-04-25T09:18:35.726Z,60.35
2019-04-25T09:19:35.883Z,60.44
2019-04-25T09:20:38.036Z,59.48
2019-04-25T09:21:34.174Z,59.96
2019-04-25T09:22:35.286Z,59.67
2019-04-25T09:23:34.376Z,60.72
2019-04-25T09:24:33.637Z,60.72
2019-04-25T09:25:34.505Z,60.82
2019-04-25T09:26:34.916Z,60.44
2019-04-25T09:27:34.333Z,59.48
2019-04-25T09:28:34.726Z,59.86
2019-04-25T09:29:34.234Z,60.05
2019-04-25T09:30:34.969Z,60.44
2019-04-25T09:31:34.576Z,60.15
2019-04-25T09:32:33.780Z,59.86
2019-04-25T09:33:35.171Z,60.92
2019-04-25T09:34:33.579Z,60.72
2019-04-25T09:35:33.492Z,60.92
2019-04-25T09:36:33.606Z,60.53
2019-04-25T09:37:33.579Z,60.63
2019-04-25T09:38:34.761Z,60.35
2019-04-25T09:39:33.824Z,61.94
2019-04-25T09:40:34.191Z,62.84
2019-04-25T09:41:33.592Z,62.07
2019-04-25T09:42:33.824Z,62.26
2019-04-25T09:43:33.507Z,62.74
2019-04-25T09:44:32.572Z,62.93
2019-04-25T09:45:33.501Z,61.78
2019-04-25T09:46:34.080Z,61.88
2019-04-25T09:47:33.526Z,62.26
2019-04-25T09:48:34.348Z,61.78
2019-04-25T09:49:33.899Z,61.78
2019-04-25T09:50:33.997Z,61.30
2019-04-25T09:51:33.605Z,61.88
2019-04-25T09:52:33.995Z,61.88
2019-04-25T09:53:34.001Z,61.78
2019-04-25T09:54:33.394Z,61.40
2019-04-25T09:55:33.935Z,61.40
2019-04-25T09:56:33.821Z,61.59
2019-04-25T09:57:33.482Z,61.49
2019-04-25T09:58:33.802Z,61.59
2019-04-25T09:59:33.211Z,61.49
2019-04-25T10:00:33.435Z,60.92
2019-04-25T10:01:33.763Z,61.40
2019-04-25T10:02:32.250Z,61.72
2019-04-25T10:03:33.359Z,61.69
2019-04-25T10:04:34.501Z,62.93
2019-04-25T10:05:33.825Z,61.91
2019-04-25T10:06:33.303Z,62.39
2019-04-25T10:07:32.161Z,62.16
2019-04-25T10:08:32.150Z,62.74
2019-04-25T10:09:33.657Z,62.10
2019-04-25T10:10:32.100Z,62.84
2019-04-25T10:11:33.506Z,62.93
2019-04-25T10:12:32.075Z,61.78
2019-04-25T10:13:33.601Z,62.45
2019-04-25T10:14:32.034Z,61.78
2019-04-25T10:15:32.010Z,61.69
2019-04-25T10:16:33.503Z,61.98
2019-04-25T10:17:33.384Z,62.07
2019-04-25T10:18:33.483Z,61.59
2019-04-25T10:19:31.942Z,63.32
2019-04-25T10:20:33.404Z,62.93
2019-04-25T10:21:31.907Z,63.22
2019-04-25T10:22:31.883Z,63.03
2019-04-25T10:23:31.868Z,63.42
2019-04-25T10:24:31.847Z,62.65
2019-04-25T10:25:33.328Z,62.45
2019-04-25T10:26:34.754Z,63.03
2019-04-25T10:27:31.794Z,63.70
2019-04-25T10:28:33.439Z,62.93
2019-04-25T10:29:41.280Z,62.62
2019-04-25T10:30:31.738Z,62.62
2019-04-25T10:31:31.719Z,63.19
2019-04-25T10:32:33.451Z,63.38
2019-04-25T10:33:31.701Z,63.09
2019-04-25T10:34:33.346Z,63.29
2019-04-25T10:35:34.239Z,63.42
2019-04-25T10:36:31.629Z,63.12
2019-04-25T10:37:31.612Z,63.32
2019-04-25T10:38:33.609Z,62.84
2019-04-25T10:39:31.579Z,63.12
2019-04-25T10:40:31.560Z,63.32
2019-04-25T10:41:33.653Z,63.32
2019-04-25T10:42:31.520Z,63.60
2019-04-25T10:43:31.500Z,62.36
2019-04-25T10:44:31.488Z,62.93
2019-04-25T10:45:31.471Z,63.51
2019-04-25T10:46:31.452Z,63.03
2019-04-25T10:47:31.432Z,63.22
2019-04-25T10:48:31.415Z,62.87
2019-04-25T10:49:31.397Z,62.96
2019-04-25T10:50:31.374Z,63.73
2019-04-25T10:51:31.382Z,63.35
2019-04-25T10:52:31.338Z,63.06
2019-04-25T10:53:31.321Z,61.52
2019-04-25T10:54:31.306Z,61.62
2019-04-25T10:55:31.302Z,61.75
2019-04-25T10:56:31.267Z,61.75
2019-04-25T10:57:31.250Z,61.94
2019-04-25T10:58:31.232Z,61.36
2019-04-25T10:59:31.213Z,60.88
2019-04-25T11:00:31.197Z,61.20
2019-04-25T11:01:31.180Z,63.06
2019-04-25T11:02:31.160Z,62.00
2019-04-25T11:03:31.151Z,61.33
2019-04-25T11:04:31.136Z,57.90
2019-04-25T11:05:31.117Z,58.28
2019-04-25T11:06:31.090Z,57.90
2019-04-25T11:07:31.084Z,58.67
2019-04-25T11:08:31.056Z,57.32
2019-04-25T11:09:31.037Z,57.22
2019-04-25T11:10:31.029Z,57.13
2019-04-25T11:11:31.005Z,57.60
2019-04-25T11:12:30.994Z,57.35
2019-04-25T11:13:30.974Z,56.29
2019-04-25T11:14:30.952Z,55.04
2019-04-25T11:15:30.935Z,53.59
2019-04-25T11:16:30.920Z,53.28
2019-04-25T11:17:30.903Z,54.72
2019-04-25T11:18:30.888Z,53.96
2019-04-25T11:19:30.869Z,56.07
2019-04-25T11:20:30.848Z,54.43
2019-04-25T11:21:30.832Z,55.40
2019-04-25T11:22:30.817Z,55.30
2019-04-25T11:23:30.805Z,55.43
2019-04-25T11:24:30.783Z,54.65
2019-04-25T11:25:30.777Z,54.24
2019-04-25T11:26:30.749Z,54.08
2019-04-25T11:27:30.745Z,54.43
2019-04-25T11:28:30.725Z,53.96
2019-04-25T11:29:30.701Z,55.40
2019-04-25T11:30:30.688Z,55.33
2019-04-25T11:31:30.681Z,55.13
2019-04-25T11:32:30.647Z,54.56
2019-04-25T11:33:30.633Z,53.11
2019-04-25T11:34:30.615Z,53.50
2019-04-25T11:35:30.605Z,54.49
2019-04-25T11:36:30.582Z,53.53
2019-04-25T11:37:30.562Z,52.37
2019-04-25T11:38:30.915Z,52.47
2019-04-25T11:39:30.543Z,52.27
2019-04-25T11:40:30.518Z,52.56
2019-04-25T11:41:30.497Z,54.10
2019-04-25T11:42:30.481Z,52.87
2019-04-25T11:43:30.470Z,53.36
2019-04-25T11:44:30.457Z,52.85
2019-04-25T11:45:30.439Z,51.89
2019-04-25T11:46:30.415Z,50.93
2019-04-25T11:47:30.406Z,50.83
2019-04-25T11:48:30.383Z,51.50
2019-04-25T11:49:30.388Z,52.18
2019-04-25T11:50:30.355Z,52.37
2019-04-25T11:51:30.339Z,52.47
2019-04-25T11:52:30.479Z,51.89
2019-04-25T11:53:30.309Z,53.33
2019-04-25T11:54:30.289Z,53.62
2019-04-25T11:55:30.278Z,52.85
2019-04-25T11:56:30.251Z,53.53
2019-04-25T11:57:30.245Z,52.85
2019-04-25T11:58:30.221Z,52.92
2019-04-25T11:59:30.204Z,53.21
2019-04-25T12:00:30.190Z,53.98
2019-04-25T12:01:30.180Z,54.36
2019-04-25T12:02:30.162Z,55.71
2019-04-25T12:03:30.138Z,56.20
2019-04-25T12:04:30.128Z,54.75
2019-04-25T12:05:30.104Z,54.56
2019-04-25T12:06:30.086Z,54.46
2019-04-25T12:07:30.087Z,54.85
2019-04-25T12:08:30.053Z,54.85
2019-04-25T12:09:30.040Z,54.08
2019-04-25T12:10:30.037Z,53.78
2019-04-25T12:11:30.009Z,53.40
2019-04-25T12:12:29.988Z,52.83
2019-04-25T12:13:29.969Z,52.06
2019-04-25T12:14:29.955Z,50.90
2019-04-25T12:15:29.940Z,52.44
2019-04-25T12:16:29.929Z,52.22
2019-04-25T12:17:29.908Z,52.32
2019-04-25T12:18:29.894Z,51.26
2019-04-25T12:19:35.717Z,51.45
2019-04-25T12:20:29.856Z,52.03
2019-04-25T12:21:29.838Z,50.97
2019-04-25T12:22:29.831Z,50.68
2019-04-25T12:23:29.810Z,50.97
2019-04-25T12:24:29.799Z,50.97
2019-04-25T12:25:29.781Z,50.78
2019-04-25T12:26:29.776Z,50.87
2019-04-25T12:27:29.744Z,52.22
2019-04-25T12:28:29.719Z,52.03
2019-04-25T12:29:29.716Z,51.93
2019-04-25T12:30:38.143Z,51.45
2019-04-25T12:31:29.669Z,51.93
2019-04-25T12:32:29.652Z,51.17
2019-04-25T12:33:29.642Z,51.74
2019-04-25T12:34:29.617Z,51.48
2019-04-25T12:35:29.598Z,51.96
2019-04-25T12:36:29.584Z,50.81
2019-04-25T12:37:29.574Z,50.49
2019-04-25T12:38:29.552Z,50.10
2019-04-25T12:39:29.543Z,51.35
2019-04-25T12:40:29.520Z,50.97
2019-04-25T12:41:29.495Z,51.48
2019-04-25T12:42:29.498Z,51.57
2019-04-25T12:43:29.464Z,50.81
2019-04-25T12:44:29.449Z,51.12
2019-04-25T12:45:29.427Z,50.25
2019-04-25T12:46:29.413Z,49.68
2019-04-25T12:47:29.402Z,49.60
2019-04-25T12:48:29.383Z,48.93
2019-04-25T12:49:29.371Z,48.64
2019-04-25T12:50:29.363Z,48.35
2019-04-25T12:51:29.334Z,48.28
2019-04-25T12:52:29.321Z,47.70